Time;durP1;ratioP1;P1;durP2;ratioP2;P2;SDS_P1;SDS_P2;PMS_P1;PMS_P2;Temp;Humidity;BMP_temperature;BMP_pressure;BME280_temperature;BME280_humidity;BME280_pressure;Samples;Min_cycle;Max_cycle;Signal;HPM_P1;HPM_P2
2022/03/29 00:01:37;;;;;;;26.90;24.00;;;;;;;;;;5071951;28;20191;-57
2022/03/29 00:04:03;;;;;;;26.40;22.97;;;;;;;;;;5072097;28;20250;-56
2022/03/29 00:06:31;;;;;;;27.30;23.67;;;;;;;;;;5071803;28;20227;-56
2022/03/29 00:08:58;;;;;;;29.03;23.37;;;;;;;;;;5071893;28;20215;-56
2022/03/29 00:11:24;;;;;;;27.83;22.53;;;;;;;;;;5069928;28;20286;-56
2022/03/29 00:13:50;;;;;;;26.73;23.80;;;;;;;;;;5070083;28;20232;-56
2022/03/29 00:16:17;;;;;;;27.53;23.90;;;;;;;;;;5071554;28;20192;-57
2022/03/29 00:18:43;;;;;;;31.77;24.33;;;;;;;;;;5071898;28;20195;-56
2022/03/29 00:21:09;;;;;;;29.47;24.33;;;;;;;;;;5071865;28;20203;-54
2022/03/29 00:23:37;;;;;;;29.40;25.00;;;;;;;;;;5071405;28;20249;-54
2022/03/29 00:26:03;;;;;;;28.97;25.50;;;;;;;;;;5071438;28;20243;-55
2022/03/29 00:28:29;;;;;;;30.27;24.10;;;;;;;;;;5071481;28;20257;-55
2022/03/29 00:30:55;;;;;;;25.77;22.90;;;;;;;;;;5071766;28;20195;-55
2022/03/29 00:33:21;;;;;;;25.63;22.80;;;;;;;;;;5071508;28;20198;-56
2022/03/29 00:35:47;;;;;;;27.90;22.97;;;;;;;;;;5071489;28;20200;-56
2022/03/29 00:38:14;;;;;;;27.43;22.30;;;;;;;;;;5071289;28;20634;-56
2022/03/29 00:40:41;;;;;;;25.90;23.03;;;;;;;;;;5071643;28;20200;-56
2022/03/29 00:43:08;;;;;;;27.00;22.83;;;;;;;;;;5071687;28;20200;-55
2022/03/29 00:45:34;;;;;;;27.27;23.03;;;;;;;;;;5071640;28;20207;-56
2022/03/29 00:48:02;;;;;;;28.40;22.73;;;;;;;;;;5071386;28;20232;-56
2022/03/29 00:50:28;;;;;;;27.97;23.40;;;;;;;;;;5071327;28;20279;-56
2022/03/29 00:52:54;;;;;;;27.13;23.83;;;;;;;;;;5071516;28;20244;-56
2022/03/29 00:55:20;;;;;;;32.17;24.63;;;;;;;;;;5071443;28;20287;-56
2022/03/29 00:57:48;;;;;;;29.17;23.77;;;;;;;;;;5071612;28;20274;-56
2022/03/29 01:00:15;;;;;;;31.03;25.40;;;;;;;;;;5071510;28;20203;-56
2022/03/29 01:02:42;;;;;;;33.07;25.67;;;;;;;;;;5071531;28;20206;-56
2022/03/29 01:05:08;;;;;;;33.43;26.77;;;;;;;;;;5071439;28;20196;-56
2022/03/29 01:07:35;;;;;;;31.13;26.00;;;;;;;;;;5073448;28;20941;-56
2022/03/29 01:10:02;;;;;;;38.70;29.27;;;;;;;;;;5075192;28;20208;-56
2022/03/29 01:12:30;;;;;;;38.20;28.57;;;;;;;;;;5075038;28;20215;-56
2022/03/29 01:14:57;;;;;;;39.70;31.70;;;;;;;;;;5074952;28;20253;-56
2022/03/29 01:17:39;;;;;;;35.07;27.50;;;;;;;;;;5074595;28;20191;-56
2022/03/29 01:20:07;;;;;;;34.07;27.93;;;;;;;;;;5074703;28;20191;-56
2022/03/29 01:22:35;;;;;;;33.50;27.63;;;;;;;;;;5074365;28;20199;-56
2022/03/29 01:25:02;;;;;;;33.87;27.47;;;;;;;;;;5074373;28;20247;-56
2022/03/29 01:27:29;;;;;;;36.40;27.47;;;;;;;;;;5074513;28;20223;-56
2022/03/29 01:29:58;;;;;;;39.97;34.38;;;;;;;;;;5073543;28;20503;-56
2022/03/29 01:32:27;;;;;;;34.07;28.27;;;;;;;;;;5074539;28;20192;-56
2022/03/29 01:34:53;;;;;;;39.22;33.63;;;;;;;;;;5073247;28;20403;-56
2022/03/29 01:37:19;;;;;;;32.53;28.60;;;;;;;;;;5074377;28;20658;-56
2022/03/29 01:39:47;;;;;;;37.70;28.77;;;;;;;;;;5074486;28;20203;-56
2022/03/29 01:42:13;;;;;;;33.90;27.93;;;;;;;;;;5074455;28;20207;-56
2022/03/29 01:44:39;;;;;;;36.17;28.83;;;;;;;;;;5074241;28;20204;-56
2022/03/29 01:47:06;;;;;;;35.00;28.47;;;;;;;;;;5074125;28;20231;-57
2022/03/29 01:49:32;;;;;;;33.93;27.77;;;;;;;;;;5074003;28;20203;-56
2022/03/29 01:51:58;;;;;;;34.90;28.17;;;;;;;;;;5073964;28;20210;-56
2022/03/29 01:54:24;;;;;;;30.63;24.63;;;;;;;;;;5073870;28;20341;-56
2022/03/29 01:56:52;;;;;;;30.57;24.33;;;;;;;;;;5074126;28;20196;-56
2022/03/29 01:59:18;;;;;;;28.57;23.37;;;;;;;;;;5073987;28;20253;-56
2022/03/29 02:01:44;;;;;;;32.80;24.77;;;;;;;;;;5073988;28;20199;-56
2022/03/29 02:04:12;;;;;;;31.23;24.57;;;;;;;;;;5073926;28;20222;-57
2022/03/29 02:06:38;;;;;;;29.80;24.83;;;;;;;;;;5073609;28;20227;-54
2022/03/29 02:09:06;;;;;;;35.53;26.20;;;;;;;;;;5073638;28;20662;-56
2022/03/29 02:11:32;;;;;;;32.80;25.57;;;;;;;;;;5073728;28;20195;-57
2022/03/29 02:13:59;;;;;;;27.80;21.03;;;;;;;;;;5073765;28;20195;-56
2022/03/29 02:16:25;;;;;;;25.97;19.97;;;;;;;;;;5073736;28;20207;-54
2022/03/29 02:18:52;;;;;;;25.47;18.80;;;;;;;;;;5072921;28;20566;-56
2022/03/29 02:21:18;;;;;;;22.47;17.03;;;;;;;;;;5073542;28;20708;-57
2022/03/29 02:23:44;;;;;;;23.95;20.65;;;;;;;;;;5072355;28;20468;-54
2022/03/29 02:26:10;;;;;;;25.37;18.07;;;;;;;;;;5073524;28;20697;-57
2022/03/29 02:28:36;;;;;;;22.27;16.97;;;;;;;;;;5073460;28;20684;-54
2022/03/29 02:31:03;;;;;;;22.93;17.07;;;;;;;;;;5073426;28;20192;-54
2022/03/29 02:33:29;;;;;;;21.23;16.77;;;;;;;;;;5073427;28;20210;-54
2022/03/29 02:35:55;;;;;;;20.07;17.20;;;;;;;;;;5073310;28;20235;-53
2022/03/29 02:38:21;;;;;;;24.17;17.90;;;;;;;;;;5073180;28;20200;-54
2022/03/29 02:40:48;;;;;;;21.43;17.63;;;;;;;;;;5073179;28;20666;-54
2022/03/29 02:43:14;;;;;;;22.30;17.60;;;;;;;;;;5073333;28;20260;-58
2022/03/29 02:45:40;;;;;;;21.07;16.47;;;;;;;;;;5073023;28;20268;-57
2022/03/29 02:48:08;;;;;;;19.07;15.27;;;;;;;;;;5073084;28;20236;-57
2022/03/29 02:50:34;;;;;;;20.87;15.47;;;;;;;;;;5073167;28;20208;-56
2022/03/29 02:53:01;;;;;;;18.67;15.37;;;;;;;;;;5073071;28;20192;-54
2022/03/29 02:55:28;;;;;;;21.07;14.80;;;;;;;;;;5072735;28;20219;-57
2022/03/29 02:57:54;;;;;;;19.53;15.27;;;;;;;;;;5072857;28;20195;-54
2022/03/29 03:00:21;;;;;;;18.00;15.10;;;;;;;;;;5072688;28;20542;-56
2022/03/29 03:02:48;;;;;;;19.83;15.00;;;;;;;;;;5072774;28;20681;-54
2022/03/29 03:05:15;;;;;;;16.07;13.93;;;;;;;;;;5072655;28;20591;-57
2022/03/29 03:07:42;;;;;;;19.17;15.47;;;;;;;;;;5072550;28;20224;-57
2022/03/29 03:10:09;;;;;;;18.87;14.53;;;;;;;;;;5072670;28;20196;-56
2022/03/29 03:12:35;;;;;;;21.03;15.87;;;;;;;;;;5072495;28;20196;-54
2022/03/29 03:15:01;;;;;;;22.70;15.93;;;;;;;;;;5072659;28;20205;-56
2022/03/29 03:17:27;;;;;;;23.17;16.10;;;;;;;;;;5072468;28;20199;-54
2022/03/29 03:19:53;;;;;;;25.13;17.90;;;;;;;;;;5072616;28;20253;-55
2022/03/29 03:22:20;;;;;;;20.47;15.63;;;;;;;;;;5072144;28;20207;-56
2022/03/29 03:24:46;;;;;;;23.27;17.00;;;;;;;;;;5072166;28;20227;-55
2022/03/29 03:27:12;;;;;;;22.43;16.63;;;;;;;;;;5072407;28;20233;-55
2022/03/29 03:29:38;;;;;;;21.83;15.83;;;;;;;;;;5072094;28;20196;-55
2022/03/29 03:32:05;;;;;;;23.87;16.13;;;;;;;;;;5072303;28;20203;-55
2022/03/29 03:34:31;;;;;;;18.53;15.90;;;;;;;;;;5072170;28;20287;-55
2022/03/29 03:36:58;;;;;;;23.17;15.30;;;;;;;;;;5072224;28;20283;-55
2022/03/29 03:39:25;;;;;;;20.40;15.33;;;;;;;;;;5072053;28;20694;-55
2022/03/29 03:41:51;;;;;;;20.33;15.73;;;;;;;;;;5072295;28;20203;-55
2022/03/29 03:44:17;;;;;;;21.03;15.43;;;;;;;;;;5072378;28;20684;-55
2022/03/29 03:46:43;;;;;;;22.60;16.73;;;;;;;;;;5071935;28;20231;-55
2022/03/29 03:49:10;;;;;;;23.90;17.33;;;;;;;;;;5071842;28;20237;-55
2022/03/29 03:51:36;;;;;;;24.33;17.27;;;;;;;;;;5071916;28;20200;-55
2022/03/29 03:54:02;;;;;;;21.57;16.40;;;;;;;;;;5072242;28;20206;-56
2022/03/29 03:56:29;;;;;;;20.67;15.60;;;;;;;;;;5072066;28;20204;-56
2022/03/29 03:58:55;;;;;;;19.17;15.70;;;;;;;;;;5072086;28;20295;-56
2022/03/29 04:01:21;;;;;;;21.80;16.20;;;;;;;;;;5071879;28;20282;-56
2022/03/29 04:03:47;;;;;;;20.03;15.40;;;;;;;;;;5072107;28;20287;-56
2022/03/29 04:06:13;;;;;;;19.97;14.73;;;;;;;;;;5071960;28;20199;-55
2022/03/29 04:08:39;;;;;;;21.30;15.70;;;;;;;;;;5071797;28;20203;-56
2022/03/29 04:11:06;;;;;;;20.47;15.60;;;;;;;;;;5071969;28;20278;-55
2022/03/29 04:13:34;;;;;;;21.17;15.40;;;;;;;;;;5071944;28;20278;-55
2022/03/29 04:16:00;;;;;;;25.07;16.93;;;;;;;;;;5072079;28;20253;-55
2022/03/29 04:18:26;;;;;;;19.87;16.47;;;;;;;;;;5071857;28;20556;-55
2022/03/29 04:20:53;;;;;;;24.57;16.97;;;;;;;;;;5071878;28;20226;-55
2022/03/29 04:23:19;;;;;;;25.03;18.50;;;;;;;;;;5071723;28;20310;-56
2022/03/29 04:25:45;;;;;;;22.87;17.20;;;;;;;;;;5071731;28;20304;-55
2022/03/29 04:28:11;;;;;;;26.40;18.60;;;;;;;;;;5071903;28;20227;-55
2022/03/29 04:30:39;;;;;;;25.60;17.73;;;;;;;;;;5071758;28;20670;-55
2022/03/29 04:33:06;;;;;;;21.90;17.80;;;;;;;;;;5071844;28;20242;-55
2022/03/29 04:35:33;;;;;;;24.70;18.77;;;;;;;;;;5071273;28;20588;-55
2022/03/29 04:37:59;;;;;;;25.50;18.60;;;;;;;;;;5071852;28;20192;-55
2022/03/29 04:40:25;;;;;;;25.33;18.23;;;;;;;;;;5071963;28;20269;-55
2022/03/29 04:42:52;;;;;;;26.80;18.53;;;;;;;;;;5074676;28;20199;-55
2022/03/29 04:45:18;;;;;;;23.40;16.90;;;;;;;;;;5075632;28;20191;-55
2022/03/29 04:47:47;;;;;;;24.60;17.63;;;;;;;;;;5075244;28;20222;-55
2022/03/29 04:50:14;;;;;;;25.10;17.70;;;;;;;;;;5075405;28;20195;-56
2022/03/29 04:52:44;;;;;;;22.13;17.73;;;;;;;;;;5075073;28;20617;-56
2022/03/29 04:55:10;;;;;;;23.80;18.20;;;;;;;;;;5075081;28;20705;-55
2022/03/29 04:57:36;;;;;;;25.17;17.07;;;;;;;;;;5075373;28;20203;-56
2022/03/29 05:00:02;;;;;;;23.80;17.57;;;;;;;;;;5075391;28;20199;-56
2022/03/29 05:02:28;;;;;;;20.33;16.50;;;;;;;;;;5075130;28;20227;-56
2022/03/29 05:04:56;;;;;;;26.53;17.90;;;;;;;;;;5075205;28;20195;-55
2022/03/29 05:07:23;;;;;;;22.77;18.50;;;;;;;;;;5074896;28;20227;-56
2022/03/29 05:09:49;;;;;;;23.70;18.00;;;;;;;;;;5075130;28;20199;-56
2022/03/29 05:12:16;;;;;;;28.17;18.83;;;;;;;;;;5075123;28;20286;-55
2022/03/29 05:14:42;;;;;;;30.03;19.53;;;;;;;;;;5074541;28;20226;-55
2022/03/29 05:17:08;;;;;;;31.37;19.80;;;;;;;;;;5074378;28;20624;-56
2022/03/29 05:19:34;;;;;;;27.80;20.43;;;;;;;;;;5074581;28;20198;-55
2022/03/29 05:22:02;;;;;;;27.57;20.60;;;;;;;;;;5074775;28;20727;-55
2022/03/29 05:24:28;;;;;;;29.77;20.93;;;;;;;;;;5074624;28;20226;-55
2022/03/29 05:26:54;;;;;;;31.60;22.13;;;;;;;;;;5074530;28;20235;-56
2022/03/29 05:29:20;;;;;;;29.37;21.57;;;;;;;;;;5074648;28;20203;-55
2022/03/29 05:31:46;;;;;;;30.03;20.60;;;;;;;;;;5074586;28;20492;-55
2022/03/29 05:34:13;;;;;;;29.90;20.73;;;;;;;;;;5074451;28;20199;-56
2022/03/29 05:36:44;;;;;;;26.30;19.47;;;;;;;;;;5073994;28;20276;-55
2022/03/29 05:39:13;;;;;;;32.23;20.37;;;;;;;;;;5074132;28;20199;-56
2022/03/29 05:41:39;;;;;;;29.87;21.23;;;;;;;;;;5074367;28;20633;-55
2022/03/29 05:44:05;;;;;;;27.13;20.50;;;;;;;;;;5074715;28;20241;-56
2022/03/29 05:49:15;;;;;;;29.83;20.27;;;;;;;;;;5074393;28;20676;-56
2022/03/29 05:51:42;;;;;;;25.47;19.30;;;;;;;;;;5073920;28;20199;-56
2022/03/29 05:54:08;;;;;;;29.90;19.87;;;;;;;;;;5072883;28;20283;-56
2022/03/29 05:56:36;;;;;;;27.10;19.33;;;;;;;;;;5074152;28;20253;-56
2022/03/29 05:59:02;;;;;;;28.63;19.97;;;;;;;;;;5074102;28;20699;-56
2022/03/29 06:01:28;;;;;;;27.43;18.50;;;;;;;;;;5074104;28;20842;-56
2022/03/29 06:03:54;;;;;;;27.23;19.83;;;;;;;;;;5073906;28;20204;-55
2022/03/29 06:06:20;;;;;;;27.00;19.90;;;;;;;;;;5073900;28;20221;-56
2022/03/29 06:08:46;;;;;;;29.23;21.00;;;;;;;;;;5073988;28;20214;-56
2022/03/29 06:11:13;;;;;;;31.03;19.07;;;;;;;;;;5074049;28;20603;-56
2022/03/29 06:13:40;;;;;;;28.23;20.50;;;;;;;;;;5073773;28;20196;-55
2022/03/29 06:16:06;;;;;;;29.00;19.93;;;;;;;;;;5073537;28;20302;-56
2022/03/29 06:18:33;;;;;;;33.30;20.20;;;;;;;;;;5073122;28;20192;-55
2022/03/29 06:20:59;;;;;;;27.57;20.20;;;;;;;;;;5073781;28;20206;-55
2022/03/29 06:23:25;;;;;;;27.43;20.10;;;;;;;;;;5073438;28;20626;-57
2022/03/29 06:25:51;;;;;;;31.43;24.23;;;;;;;;;;5073326;28;20253;-56
2022/03/29 06:28:17;;;;;;;26.87;21.50;;;;;;;;;;5073573;28;20647;-57
2022/03/29 06:30:45;;;;;;;31.30;21.50;;;;;;;;;;5073452;28;20227;-55
2022/03/29 06:33:12;;;;;;;27.90;20.73;;;;;;;;;;5073541;28;20203;-57
2022/03/29 06:35:38;;;;;;;28.47;20.23;;;;;;;;;;5073222;28;20286;-58
2022/03/29 06:38:05;;;;;;;34.10;22.50;;;;;;;;;;5073477;28;20199;-56
2022/03/29 06:40:32;;;;;;;34.17;22.77;;;;;;;;;;5073261;28;20196;-56
2022/03/29 06:42:59;;;;;;;31.40;23.40;;;;;;;;;;5073320;28;20212;-55
2022/03/29 06:45:26;;;;;;;34.37;23.80;;;;;;;;;;5073135;28;20204;-56
2022/03/29 06:47:53;;;;;;;32.43;24.03;;;;;;;;;;5072985;28;20254;-56
2022/03/29 06:50:19;;;;;;;37.73;25.40;;;;;;;;;;5072963;28;20301;-56
2022/03/29 06:52:45;;;;;;;37.73;24.77;;;;;;;;;;5072983;28;20256;-56
2022/03/29 06:55:14;;;;;;;34.33;23.83;;;;;;;;;;5072896;28;20198;-55
2022/03/29 06:57:40;;;;;;;31.63;23.27;;;;;;;;;;5072089;28;20198;-56
2022/03/29 07:00:07;;;;;;;37.00;24.80;;;;;;;;;;5072999;28;20309;-57
2022/03/29 07:02:34;;;;;;;32.90;23.43;;;;;;;;;;5072841;28;20744;-55
2022/03/29 07:05:01;;;;;;;29.77;23.53;;;;;;;;;;5072626;28;20279;-58
2022/03/29 07:07:27;;;;;;;29.70;22.47;;;;;;;;;;5072525;28;20235;-58
2022/03/29 07:12:48;;;;;;;29.03;21.10;;;;;;;;;;5072689;28;20222;-57
2022/03/29 07:15:14;;;;;;;31.90;21.37;;;;;;;;;;5072780;28;20218;-57
2022/03/29 07:17:40;;;;;;;32.43;20.97;;;;;;;;;;5072632;28;20188;-57
2022/03/29 07:20:08;;;;;;;26.87;18.93;;;;;;;;;;5072538;28;20633;-56
2022/03/29 07:22:35;;;;;;;28.20;19.13;;;;;;;;;;5072359;28;20215;-56
2022/03/29 07:25:01;;;;;;;25.33;19.60;;;;;;;;;;5072435;28;20255;-57
2022/03/29 07:27:27;;;;;;;29.30;19.20;;;;;;;;;;5072412;28;20277;-56
2022/03/29 07:29:53;;;;;;;26.20;18.77;;;;;;;;;;5072373;28;20206;-57
2022/03/29 07:32:21;;;;;;;27.67;19.43;;;;;;;;;;5072195;28;20612;-58
2022/03/29 07:34:47;;;;;;;25.70;18.13;;;;;;;;;;5072297;28;20568;-58
2022/03/29 07:37:14;;;;;;;26.80;18.60;;;;;;;;;;5072791;28;20223;-57
2022/03/29 07:39:41;;;;;;;22.93;18.10;;;;;;;;;;5072295;28;20210;-55
2022/03/29 07:42:08;;;;;;;36.37;18.67;;;;;;;;;;5072221;28;20195;-61
2022/03/29 07:44:34;;;;;;;24.93;18.33;;;;;;;;;;5072175;28;20222;-57
2022/03/29 07:47:00;;;;;;;27.73;18.43;;;;;;;;;;5071994;28;20780;-56
2022/03/29 07:49:29;;;;;;;27.43;18.60;;;;;;;;;;5070810;28;20200;-57
2022/03/29 07:51:55;;;;;;;26.07;18.40;;;;;;;;;;5071875;28;20666;-56
2022/03/29 07:54:22;;;;;;;25.80;19.23;;;;;;;;;;5071702;28;20197;-56
2022/03/29 07:56:48;;;;;;;26.53;17.90;;;;;;;;;;5071793;28;20203;-60
2022/03/29 07:59:14;;;;;;;25.73;18.13;;;;;;;;;;5072063;28;20223;-57
2022/03/29 08:01:41;;;;;;;30.50;18.63;;;;;;;;;;5071914;28;20200;-57
2022/03/29 08:04:07;;;;;;;32.40;20.43;;;;;;;;;;5071885;28;20203;-57
2022/03/29 08:06:33;;;;;;;24.03;19.10;;;;;;;;;;5071932;28;20198;-57
2022/03/29 08:08:59;;;;;;;25.13;18.23;;;;;;;;;;5071775;28;20287;-58
2022/03/29 08:11:27;;;;;;;27.90;20.10;;;;;;;;;;5071577;28;20294;-57
2022/03/29 08:13:54;;;;;;;25.87;20.10;;;;;;;;;;5071657;28;20203;-57
2022/03/29 08:16:20;;;;;;;27.20;19.40;;;;;;;;;;5072069;28;20203;-58
2022/03/29 08:18:46;;;;;;;30.13;20.33;;;;;;;;;;5075881;28;20202;-57
2022/03/29 08:23:59;;;;;;;28.13;19.10;;;;;;;;;;5075935;28;20622;-58
2022/03/29 08:26:26;;;;;;;28.07;20.07;;;;;;;;;;5075678;28;20261;-57
2022/03/29 08:28:52;;;;;;;28.07;19.93;;;;;;;;;;5075870;28;20204;-57
2022/03/29 08:31:18;;;;;;;28.23;20.07;;;;;;;;;;5075699;28;20226;-57
2022/03/29 08:33:44;;;;;;;30.73;20.47;;;;;;;;;;5075758;28;20238;-57
2022/03/29 08:36:10;;;;;;;30.60;19.17;;;;;;;;;;5075807;28;20237;-57
2022/03/29 08:38:36;;;;;;;28.93;19.03;;;;;;;;;;5075715;28;20209;-57
2022/03/29 08:41:04;;;;;;;30.73;19.97;;;;;;;;;;5075137;28;20731;-58
2022/03/29 08:43:32;;;;;;;28.30;18.17;;;;;;;;;;5075440;28;20203;-56
2022/03/29 08:45:58;;;;;;;25.23;18.87;;;;;;;;;;5075272;28;20665;-57
2022/03/29 08:48:25;;;;;;;27.03;19.97;;;;;;;;;;5075289;28;20318;-58
2022/03/29 08:50:51;;;;;;;33.23;20.13;;;;;;;;;;5075224;28;20199;-57
2022/03/29 08:53:17;;;;;;;32.97;21.30;;;;;;;;;;5075341;28;20207;-57
2022/03/29 08:55:44;;;;;;;29.67;21.57;;;;;;;;;;5075241;28;20195;-57
2022/03/29 08:58:10;;;;;;;26.57;20.43;;;;;;;;;;5075116;28;20203;-57
2022/03/29 09:00:37;;;;;;;27.40;19.70;;;;;;;;;;5073048;28;20204;-55
2022/03/29 09:03:03;;;;;;;29.57;18.60;;;;;;;;;;5074952;28;20225;-56
2022/03/29 09:05:32;;;;;;;23.43;16.00;;;;;;;;;;5074881;28;20195;-57
2022/03/29 09:08:00;;;;;;;32.17;26.20;;;;;;;;;;5074973;28;20223;-57
2022/03/29 09:10:38;;;;;;;25.80;17.77;;;;;;;;;;5075117;28;20200;-60
2022/03/29 09:13:14;;;;;;;27.90;17.03;;;;;;;;;;5075163;28;20278;-56
2022/03/29 09:15:42;;;;;;;20.13;15.77;;;;;;;;;;5074692;28;20215;-56
2022/03/29 09:18:08;;;;;;;22.57;16.80;;;;;;;;;;5074874;28;20191;-57
2022/03/29 09:20:35;;;;;;;22.37;16.30;;;;;;;;;;5074462;28;20195;-57
2022/03/29 09:23:01;;;;;;;25.47;17.00;;;;;;;;;;5074403;28;20207;-57
2022/03/29 09:25:34;;;;;;;25.77;17.37;;;;;;;;;;5074235;28;20246;-56
2022/03/29 09:28:03;;;;;;;24.03;17.30;;;;;;;;;;5074147;28;20247;-58
2022/03/29 09:30:38;;;;;;;25.20;18.07;;;;;;;;;;5074359;28;20238;-57
2022/03/29 09:33:07;;;;;;;24.67;18.07;;;;;;;;;;5074339;28;20195;-56
2022/03/29 09:35:33;;;;;;;25.53;19.03;;;;;;;;;;5074061;28;20222;-59
2022/03/29 09:38:01;;;;;;;28.93;19.63;;;;;;;;;;5074269;28;20194;-57
2022/03/29 09:40:34;;;;;;;28.57;19.60;;;;;;;;;;5073941;28;20673;-58
2022/03/29 09:43:01;;;;;;;31.87;20.97;;;;;;;;;;5070195;28;20230;-56
2022/03/29 09:45:40;;;;;;;26.57;18.13;;;;;;;;;;5073000;28;20195;-56
2022/03/29 09:48:20;;;;;;;28.50;19.23;;;;;;;;;;5073674;28;20641;-56
2022/03/29 09:50:46;;;;;;;32.83;22.67;;;;;;;;;;5073775;28;20199;-56
2022/03/29 09:53:32;;;;;;;29.77;19.93;;;;;;;;;;5073967;28;20229;-57
2022/03/29 09:55:59;;;;;;;31.83;20.23;;;;;;;;;;5073877;28;20196;-56
2022/03/29 09:58:25;;;;;;;23.33;18.47;;;;;;;;;;5073713;28;20204;-56
2022/03/29 10:00:51;;;;;;;26.97;18.60;;;;;;;;;;5073587;28;20205;-56
2022/03/29 10:03:17;;;;;;;29.03;19.17;;;;;;;;;;5073560;28;20219;-57
2022/03/29 10:05:45;;;;;;;23.23;17.60;;;;;;;;;;5073533;28;20234;-57
2022/03/29 10:10:59;;;;;;;32.50;19.03;;;;;;;;;;5073538;28;20214;-56
2022/03/29 10:13:25;;;;;;;21.40;17.43;;;;;;;;;;5073406;28;20649;-58
2022/03/29 10:15:51;;;;;;;18.93;16.43;;;;;;;;;;5073348;28;20214;-57
2022/03/29 10:18:18;;;;;;;30.47;23.80;;;;;;;;;;5073496;28;20196;-57
2022/03/29 10:20:45;;;;;;;26.80;18.17;;;;;;;;;;5073195;28;20215;-57
2022/03/29 10:23:14;;;;;;;24.40;17.83;;;;;;;;;;5073214;28;20218;-56
2022/03/29 10:25:41;;;;;;;25.57;18.10;;;;;;;;;;5072841;28;20242;-57
2022/03/29 10:28:07;;;;;;;25.73;18.57;;;;;;;;;;5072959;28;20709;-57
2022/03/29 10:30:33;;;;;;;26.57;17.37;;;;;;;;;;5073041;28;20204;-58
2022/03/29 10:33:14;;;;;;;23.97;16.17;;;;;;;;;;5073276;28;20206;-57
2022/03/29 10:35:55;;;;;;;21.33;15.60;;;;;;;;;;5072849;28;20611;-58
2022/03/29 10:38:23;;;;;;;18.53;13.93;;;;;;;;;;5072750;28;20663;-58
2022/03/29 10:40:49;;;;;;;22.17;13.80;;;;;;;;;;5072045;28;20196;-57
2022/03/29 10:43:28;;;;;;;20.67;14.30;;;;;;;;;;5073009;28;20195;-57
2022/03/29 10:45:54;;;;;;;19.37;14.37;;;;;;;;;;5072907;28;20199;-57
2022/03/29 10:48:20;;;;;;;21.70;14.23;;;;;;;;;;5072912;28;20565;-58
2022/03/29 10:50:55;;;;;;;24.50;18.07;;;;;;;;;;5072885;28;20610;-56
2022/03/29 10:53:24;;;;;;;18.53;13.33;;;;;;;;;;5073032;28;20248;-56
2022/03/29 10:56:17;;;;;;;19.37;13.70;;;;;;;;;;5072969;28;20662;-57
2022/03/29 10:59:00;;;;;;;19.40;13.23;;;;;;;;;;5072590;28;20196;-58
2022/03/29 11:01:26;;;;;;;18.43;12.97;;;;;;;;;;5061686;28;20207;-57
2022/03/29 11:03:59;;;;;;;24.33;13.97;;;;;;;;;;5071492;28;20306;-59
2022/03/29 11:06:25;;;;;;;18.00;13.43;;;;;;;;;;5072386;28;20609;-57
2022/03/29 11:09:03;;;;;;;17.33;12.57;;;;;;;;;;5072344;28;20343;-57
2022/03/29 11:11:39;;;;;;;20.40;12.67;;;;;;;;;;5072462;28;20223;-58
2022/03/29 11:14:23;;;;;;;17.67;12.97;;;;;;;;;;5072313;28;20206;-56
2022/03/29 11:16:49;;;;;;;19.37;12.87;;;;;;;;;;5072418;28;20649;-57
2022/03/29 11:19:30;;;;;;;20.23;14.47;;;;;;;;;;5072495;28;20338;-58
2022/03/29 11:22:00;;;;;;;18.13;13.53;;;;;;;;;;5072106;28;20203;-58
2022/03/29 11:24:27;;;;;;;17.90;12.77;;;;;;;;;;5072356;28;20229;-58
2022/03/29 11:26:58;;;;;;;22.23;13.40;;;;;;;;;;5072126;28;20372;-58
2022/03/29 11:29:24;;;;;;;15.23;12.60;;;;;;;;;;5072198;28;20197;-57
2022/03/29 11:31:50;;;;;;;16.77;12.73;;;;;;;;;;5072459;28;20638;-58
2022/03/29 11:34:16;;;;;;;18.70;12.47;;;;;;;;;;5072259;28;20197;-57
2022/03/29 11:36:43;;;;;;;15.10;12.20;;;;;;;;;;5072361;28;20721;-57
2022/03/29 11:39:21;;;;;;;18.97;12.10;;;;;;;;;;5072507;28;20200;-56
2022/03/29 11:41:48;;;;;;;20.50;12.60;;;;;;;;;;5072248;28;20196;-58
2022/03/29 11:44:15;;;;;;;15.53;12.23;;;;;;;;;;5072326;28;20257;-57
2022/03/29 11:46:43;;;;;;;19.10;13.20;;;;;;;;;;5071964;28;20211;-58
2022/03/29 11:49:09;;;;;;;19.00;12.23;;;;;;;;;;5072320;28;20196;-58
2022/03/29 11:51:35;;;;;;;25.03;13.07;;;;;;;;;;5072035;28;20192;-59
2022/03/29 11:54:01;;;;;;;16.57;11.67;;;;;;;;;;5072326;28;20249;-57
2022/03/29 11:56:27;;;;;;;19.57;13.10;;;;;;;;;;5072055;28;20200;-58
2022/03/29 11:58:55;;;;;;;16.97;13.13;;;;;;;;;;5072014;28;20200;-57
2022/03/29 12:01:22;;;;;;;16.90;12.73;;;;;;;;;;5072224;28;20212;-57
2022/03/29 12:03:52;;;;;;;17.30;12.13;;;;;;;;;;5068169;28;20204;-57
2022/03/29 12:06:19;;;;;;;15.43;12.63;;;;;;;;;;5071892;28;20596;-57
2022/03/29 12:08:46;;;;;;;17.47;13.27;;;;;;;;;;5071657;28;20277;-58
2022/03/29 12:11:13;;;;;;;16.13;12.10;;;;;;;;;;5071915;28;20198;-59
2022/03/29 12:13:39;;;;;;;13.13;11.73;;;;;;;;;;5071632;28;20666;-59
2022/03/29 12:16:22;;;;;;;16.17;12.10;;;;;;;;;;5071761;28;20292;-57
2022/03/29 12:18:49;;;;;;;20.33;12.77;;;;;;;;;;5071602;28;20235;-58
2022/03/29 12:21:16;;;;;;;15.23;11.50;;;;;;;;;;5071766;28;20217;-57
2022/03/29 12:23:42;;;;;;;14.07;11.47;;;;;;;;;;5071279;28;20219;-57
2022/03/29 12:26:09;;;;;;;13.87;10.93;;;;;;;;;;5071553;28;20243;-57
2022/03/29 12:28:40;;;;;;;18.13;12.00;;;;;;;;;;5071397;28;20235;-58
2022/03/29 12:31:09;;;;;;;15.57;11.50;;;;;;;;;;5071825;28;20617;-57
2022/03/29 12:33:37;;;;;;;22.47;17.40;;;;;;;;;;5071037;28;20200;-57
2022/03/29 12:36:03;;;;;;;16.40;11.07;;;;;;;;;;5071238;28;20196;-59
2022/03/29 12:38:39;;;;;;;16.70;10.17;;;;;;;;;;5071785;28;20199;-54
2022/03/29 12:41:05;;;;;;;15.77;10.97;;;;;;;;;;5071439;28;20197;-54
2022/03/29 12:43:34;;;;;;;15.80;10.97;;;;;;;;;;5071760;28;20266;-55
2022/03/29 12:46:00;;;;;;;16.03;9.53;;;;;;;;;;5071741;28;20210;-53
2022/03/29 12:48:28;;;;;;;13.30;8.97;;;;;;;;;;5071665;28;20230;-55
2022/03/29 12:50:56;;;;;;;16.90;11.63;;;;;;;;;;5071452;28;20637;-58
2022/03/29 12:53:22;;;;;;;18.73;10.77;;;;;;;;;;5071751;28;20208;-57
2022/03/29 12:55:55;;;;;;;15.97;10.03;;;;;;;;;;5071509;28;20293;-56
2022/03/29 12:58:30;;;;;;;16.07;10.13;;;;;;;;;;5071177;28;20700;-55
2022/03/29 13:00:56;;;;;;;14.90;9.43;;;;;;;;;;5071244;28;20218;-54
2022/03/29 13:03:22;;;;;;;11.30;8.27;;;;;;;;;;5073550;28;20198;-54
2022/03/29 13:05:48;;;;;;;12.27;9.23;;;;;;;;;;5074979;28;20205;-54
2022/03/29 13:08:23;;;;;;;12.60;7.70;;;;;;;;;;5075156;28;20229;-55
2022/03/29 13:10:50;;;;;;;14.73;9.23;;;;;;;;;;5074986;28;20226;-56
2022/03/29 13:13:22;;;;;;;13.17;8.23;;;;;;;;;;5075200;28;20201;-56
2022/03/29 13:15:50;;;;;;;12.93;9.13;;;;;;;;;;5075080;28;20232;-56
2022/03/29 13:18:20;;;;;;;14.87;7.97;;;;;;;;;;5075031;28;20200;-57
2022/03/29 13:20:46;;;;;;;10.67;8.03;;;;;;;;;;5074712;28;20325;-55
2022/03/29 13:23:12;;;;;;;16.67;11.53;;;;;;;;;;5074915;28;20196;-57
2022/03/29 13:25:40;;;;;;;15.00;9.13;;;;;;;;;;5074433;28;20246;-56
2022/03/29 13:28:06;;;;;;;13.00;8.97;;;;;;;;;;5074673;28;20227;-57
2022/03/29 13:30:33;;;;;;;14.60;8.50;;;;;;;;;;5074791;28;20204;-55
2022/03/29 13:32:59;;;;;;;14.57;9.03;;;;;;;;;;5074337;28;20562;-56
2022/03/29 13:35:25;;;;;;;14.67;8.13;;;;;;;;;;5074495;28;20286;-56
2022/03/29 13:37:51;;;;;;;11.97;7.50;;;;;;;;;;5074110;28;20611;-56
2022/03/29 13:40:17;;;;;;;14.10;8.00;;;;;;;;;;5074425;28;20204;-58
2022/03/29 13:42:44;;;;;;;14.13;7.80;;;;;;;;;;5072404;28;20716;-56
2022/03/29 13:45:10;;;;;;;12.47;7.97;;;;;;;;;;5074540;28;20202;-56
2022/03/29 13:47:36;;;;;;;14.13;8.03;;;;;;;;;;5073970;28;20728;-56
2022/03/29 13:50:03;;;;;;;11.90;7.33;;;;;;;;;;5074064;28;20243;-56
2022/03/29 13:52:29;;;;;;;15.77;8.17;;;;;;;;;;5074337;28;20252;-55
2022/03/29 13:55:21;;;;;;;11.60;7.13;;;;;;;;;;5074302;28;20230;-55
2022/03/29 13:57:49;;;;;;;13.80;8.13;;;;;;;;;;5063059;28;20193;-54
2022/03/29 14:00:17;;;;;;;11.47;7.53;;;;;;;;;;5073752;28;20683;-55
2022/03/29 14:02:43;;;;;;;11.47;8.00;;;;;;;;;;5072635;28;20202;-56
2022/03/29 14:05:10;;;;;;;13.03;8.23;;;;;;;;;;5074316;28;20304;-56
2022/03/29 14:07:36;;;;;;;12.97;8.33;;;;;;;;;;5074057;28;20221;-56
2022/03/29 14:10:02;;;;;;;13.13;8.40;;;;;;;;;;5074288;28;20250;-55
2022/03/29 14:12:28;;;;;;;14.37;8.07;;;;;;;;;;5070356;28;20196;-56
2022/03/29 14:14:56;;;;;;;10.33;7.97;;;;;;;;;;5072150;28;20716;-57
2022/03/29 14:17:22;;;;;;;22.60;14.27;;;;;;;;;;5072982;28;20196;-56
2022/03/29 14:19:51;;;;;;;13.93;8.40;;;;;;;;;;5073491;28;21000;-56
2022/03/29 14:22:17;;;;;;;11.27;7.70;;;;;;;;;;5073897;28;20245;-56
2022/03/29 14:24:43;;;;;;;13.90;8.47;;;;;;;;;;5073636;28;20211;-54
2022/03/29 14:27:09;;;;;;;12.13;7.83;;;;;;;;;;5073429;28;20593;-54
2022/03/29 14:29:35;;;;;;;14.40;7.57;;;;;;;;;;5073404;28;20222;-56
2022/03/29 14:32:03;;;;;;;16.10;8.13;;;;;;;;;;5073628;28;20203;-55